createdAt,value
2019-01-02T00:01:45.120Z,4.80
2019-01-02T00:04:14.807Z,4.80
2019-01-02T00:06:44.506Z,4.80
2019-01-02T00:09:14.103Z,4.80
2019-01-02T00:11:43.613Z,4.90
2019-01-02T00:14:13.067Z,4.80
2019-01-02T00:16:42.873Z,4.80
2019-01-02T00:19:12.354Z,4.80
2019-01-02T00:21:42.210Z,4.80
2019-01-02T00:24:11.685Z,4.80
2019-01-02T00:26:41.551Z,4.80
2019-01-02T00:29:11.118Z,4.90
2019-01-02T00:31:40.662Z,4.70
2019-01-02T00:34:10.620Z,4.80
2019-01-02T00:36:40.110Z,4.70
2019-01-02T00:39:10.080Z,4.60
2019-01-02T00:41:39.981Z,4.60
2019-01-02T00:44:09.821Z,4.50
2019-01-02T00:46:39.420Z,4.50
2019-01-02T00:49:09.246Z,4.40
2019-01-02T00:51:38.756Z,4.30
2019-01-02T00:54:08.693Z,4.30
2019-01-02T00:56:38.202Z,4.20
2019-01-02T00:59:09.513Z,4.10
2019-01-02T01:01:38.986Z,4.10
2019-01-02T01:04:09.257Z,4.10
2019-01-02T01:06:39.707Z,4.10
2019-01-02T01:09:09.773Z,4.20
2019-01-02T01:11:42.193Z,4.10
2019-01-02T01:14:12.438Z,4.10
2019-01-02T01:16:41.960Z,4.20
2019-01-02T01:19:11.764Z,4.20
2019-01-02T01:21:41.246Z,4.20
2019-01-02T01:24:11.484Z,4.20
2019-01-02T01:26:40.988Z,4.30
2019-01-02T01:29:10.494Z,4.30
2019-01-02T01:31:40.399Z,4.30
2019-01-02T01:34:09.865Z,4.20
2019-01-02T01:36:39.485Z,4.20
2019-01-02T01:39:10.174Z,4.20
2019-01-02T01:41:39.650Z,4.20
2019-01-02T01:44:09.209Z,4.10
2019-01-02T01:46:40.944Z,4.20
2019-01-02T01:49:10.386Z,4.10
2019-01-02T01:51:40.381Z,4.10
2019-01-02T01:54:09.889Z,4.20
2019-01-02T01:56:39.381Z,4.10
2019-01-02T01:59:09.275Z,4.10
2019-01-02T02:01:38.647Z,4.10
2019-01-02T02:04:08.596Z,4.10
2019-01-02T02:06:37.995Z,4.10
2019-01-02T02:09:08.000Z,4.10
2019-01-02T02:11:37.591Z,4.10
2019-01-02T02:14:09.642Z,4.10
2019-01-02T02:16:42.343Z,4.20
2019-01-02T02:19:12.184Z,4.10
2019-01-02T02:21:41.588Z,4.20
2019-01-02T02:24:14.386Z,4.20
2019-01-02T02:26:44.014Z,4.10
2019-01-02T02:29:13.492Z,4.10
2019-01-02T02:31:43.445Z,4.10
2019-01-02T02:34:13.303Z,4.10
2019-01-02T02:36:43.157Z,4.20
2019-01-02T02:39:13.037Z,4.10
2019-01-02T02:41:43.072Z,4.10
2019-01-02T02:44:13.021Z,4.10
2019-01-02T02:46:42.795Z,4.10
2019-01-02T02:49:12.281Z,4.10
2019-01-02T02:51:41.689Z,4.00
2019-01-02T02:54:11.549Z,4.20
2019-01-02T02:56:41.369Z,4.10
2019-01-02T02:59:11.281Z,4.20
2019-01-02T03:01:41.092Z,4.20
2019-01-02T03:04:13.098Z,4.20
2019-01-02T03:06:43.950Z,4.20
2019-01-02T03:09:14.033Z,4.20
2019-01-02T03:11:43.507Z,4.20
2019-01-02T03:14:12.893Z,4.30
2019-01-02T03:16:42.857Z,4.20
2019-01-02T03:19:12.681Z,4.20
2019-01-02T03:21:42.675Z,4.20
2019-01-02T03:24:12.435Z,4.20
2019-01-02T03:26:41.813Z,4.30
2019-01-02T03:29:11.360Z,4.20
2019-01-02T03:31:41.149Z,4.30
2019-01-02T03:34:11.409Z,4.20
2019-01-02T03:36:40.882Z,4.20
2019-01-02T03:39:10.493Z,4.20
2019-01-02T03:41:40.071Z,4.20
2019-01-02T03:44:09.627Z,4.20
2019-01-02T03:46:39.167Z,4.20
2019-01-02T03:49:08.527Z,4.30
2019-01-02T03:51:49.657Z,4.30
2019-01-02T03:54:30.331Z,4.20
2019-01-02T03:57:11.888Z,4.20
2019-01-02T03:59:53.052Z,4.20
2019-01-02T04:02:34.151Z,4.20
2019-01-02T04:05:14.961Z,4.20
2019-01-02T04:07:56.340Z,4.20
2019-01-02T04:10:37.858Z,4.20
2019-01-02T04:13:18.400Z,4.20
2019-01-02T04:15:59.146Z,4.10
2019-01-02T04:18:40.678Z,4.20
2019-01-02T04:21:22.022Z,4.10
2019-01-02T04:24:02.900Z,4.10
2019-01-02T04:26:32.256Z,4.10
2019-01-02T04:29:20.614Z,4.10
2019-01-02T04:32:10.363Z,4.10
2019-01-02T04:34:59.174Z,4.20
2019-01-02T04:37:47.716Z,4.10
2019-01-02T04:40:36.138Z,4.00
2019-01-02T04:43:24.552Z,4.00
2019-01-02T04:46:12.968Z,4.00
2019-01-02T04:48:54.376Z,4.10
2019-01-02T04:51:35.780Z,4.10
2019-01-02T04:54:17.307Z,4.00
2019-01-02T04:56:59.672Z,4.10
2019-01-02T04:59:41.155Z,4.10
2019-01-02T05:02:22.521Z,4.10
2019-01-02T05:05:03.877Z,4.10
2019-01-02T05:07:44.652Z,4.00
2019-01-02T05:10:26.284Z,4.00
2019-01-02T05:13:07.435Z,4.00
2019-01-02T05:15:47.982Z,4.00
2019-01-02T05:18:28.838Z,4.00
2019-01-02T05:21:09.468Z,4.00
2019-01-02T05:23:50.167Z,4.00
2019-01-02T05:26:30.863Z,4.00
2019-01-02T05:29:11.514Z,4.00
2019-01-02T05:31:52.678Z,4.00
2019-01-02T05:34:33.957Z,4.00
2019-01-02T05:37:15.080Z,3.90
2019-01-02T05:39:56.442Z,3.90
2019-01-02T05:42:25.758Z,3.90
2019-01-02T05:45:14.231Z,3.90
2019-01-02T05:48:02.643Z,3.90
2019-01-02T05:51:09.906Z,3.80
2019-01-02T05:53:58.249Z,3.80
2019-01-02T05:56:46.648Z,3.80
2019-01-02T05:59:35.030Z,3.80
2019-01-02T06:02:23.400Z,3.80
2019-01-02T06:05:12.530Z,3.80
2019-01-02T06:08:00.961Z,3.80
2019-01-02T06:10:49.346Z,3.80
2019-01-02T06:13:37.841Z,3.90
2019-01-02T06:16:26.155Z,3.80
2019-01-02T06:19:14.545Z,3.80
2019-01-02T06:22:02.915Z,3.80
2019-01-02T06:24:51.343Z,3.90
2019-01-02T06:27:39.716Z,3.90
2019-01-02T06:30:28.431Z,4.00
2019-01-02T06:33:09.193Z,4.00
2019-01-02T06:35:50.341Z,4.00
2019-01-02T06:38:31.760Z,3.90
2019-01-02T06:41:12.912Z,4.00
2019-01-02T06:43:54.325Z,4.00
2019-01-02T06:46:34.907Z,4.00
2019-01-02T06:49:16.431Z,3.90
2019-01-02T06:51:57.069Z,3.90
2019-01-02T06:54:38.027Z,3.90
2019-01-02T06:57:18.812Z,3.90
2019-01-02T07:00:00.379Z,3.90
2019-01-02T07:02:41.660Z,3.80
2019-01-02T07:05:26.188Z,3.80
2019-01-02T07:08:07.050Z,3.80
2019-01-02T07:10:47.682Z,3.80
2019-01-02T07:13:29.146Z,3.80
2019-01-02T07:16:10.109Z,3.80
2019-01-02T07:18:51.902Z,3.80
2019-01-02T07:21:33.335Z,3.80
2019-01-02T07:24:02.726Z,3.80
2019-01-02T07:26:51.118Z,3.80
2019-01-02T07:29:39.651Z,3.80
2019-01-02T07:32:28.040Z,3.90
2019-01-02T07:35:35.532Z,3.80
2019-01-02T07:38:42.969Z,3.80
2019-01-02T07:41:57.175Z,3.80
2019-01-02T07:45:05.432Z,3.90
2019-01-02T07:48:15.709Z,3.90
2019-01-02T07:51:24.469Z,3.90
2019-01-02T07:54:32.601Z,4.00
2019-01-02T07:57:40.740Z,3.90
2019-01-02T08:00:49.479Z,4.00
2019-01-02T08:03:57.825Z,4.00
2019-01-02T08:07:06.818Z,4.00
2019-01-02T08:09:48.501Z,4.00
2019-01-02T08:12:30.335Z,4.00
2019-01-02T08:15:12.050Z,4.00
2019-01-02T08:17:54.776Z,4.00
2019-01-02T08:21:04.191Z,4.00
2019-01-02T08:24:13.213Z,4.00
2019-01-02T08:27:21.592Z,4.00
2019-01-02T08:30:17.208Z,4.00
2019-01-02T08:33:25.789Z,4.00
2019-01-02T08:36:35.338Z,4.00
2019-01-02T08:39:45.088Z,4.00
2019-01-02T08:45:32.264Z,4.10
2019-01-02T08:48:26.547Z,4.10
2019-01-02T08:51:35.931Z,4.20
2019-01-02T08:54:40.775Z,4.20
2019-01-02T08:57:49.175Z,4.30
2019-01-02T09:00:57.303Z,4.30
2019-01-02T09:04:05.766Z,4.40
2019-01-02T09:07:42.299Z,4.30
2019-01-02T09:10:35.544Z,4.40
2019-01-02T09:13:52.128Z,4.50
2019-01-02T09:17:01.265Z,4.60
2019-01-02T09:19:56.818Z,4.50
2019-01-02T09:23:06.100Z,4.50
2019-01-02T09:26:14.867Z,4.50
2019-01-02T09:29:30.194Z,4.50
2019-01-02T09:32:47.991Z,4.60
2019-01-02T09:35:57.055Z,4.60
2019-01-02T09:38:51.851Z,4.50
2019-01-02T09:41:45.414Z,4.50
2019-01-02T09:44:56.247Z,4.60
2019-01-02T09:47:40.390Z,4.60
2019-01-02T09:50:23.495Z,4.70
2019-01-02T09:53:32.463Z,4.70
2019-01-02T16:48:28.936Z,3.70
2019-01-02T16:50:58.300Z,3.60
2019-01-02T16:53:27.596Z,3.70
2019-01-02T16:55:56.908Z,3.60
2019-01-02T16:58:26.263Z,3.60
2019-01-02T17:00:55.686Z,3.60
2019-01-02T17:03:25.039Z,3.60
2019-01-02T17:05:54.360Z,3.50
2019-01-02T17:08:23.722Z,3.50
2019-01-02T17:10:53.111Z,3.50
2019-01-02T17:13:22.602Z,3.50
2019-01-02T17:15:52.466Z,3.50
2019-01-02T17:18:21.768Z,3.50
2019-01-02T17:20:51.408Z,3.50
2019-01-02T17:23:21.066Z,3.50
2019-01-02T17:25:50.453Z,3.40
2019-01-02T17:28:19.811Z,3.40
2019-01-02T17:30:49.187Z,3.30
2019-01-02T17:33:18.564Z,3.30
2019-01-02T17:35:47.992Z,3.30
2019-01-02T17:38:17.359Z,3.30
2019-01-02T17:40:46.808Z,3.20
2019-01-02T17:43:16.182Z,3.30
2019-01-02T17:45:45.532Z,3.30
2019-01-02T17:48:14.872Z,3.20
2019-01-02T17:50:44.317Z,3.20
2019-01-02T17:53:13.665Z,3.20
2019-01-02T17:55:43.078Z,3.20
2019-01-02T17:58:12.944Z,3.10
2019-01-02T18:00:42.279Z,3.20
2019-01-02T18:03:11.622Z,3.30
2019-01-02T18:05:41.008Z,3.20
2019-01-02T18:08:10.426Z,3.20
2019-01-02T18:10:39.945Z,3.20
2019-01-02T18:13:09.381Z,3.20
2019-01-02T18:15:39.264Z,3.10
2019-01-02T18:18:09.030Z,3.10
2019-01-02T18:20:38.603Z,3.10
2019-01-02T18:23:07.939Z,3.10
2019-01-02T18:25:37.323Z,3.00
2019-01-02T18:28:06.810Z,3.00
2019-01-02T18:30:36.141Z,3.00
2019-01-02T18:33:05.415Z,3.00
2019-01-02T18:35:35.256Z,3.00
2019-01-02T18:38:04.629Z,3.00
2019-01-02T18:40:33.961Z,3.00
2019-01-02T18:43:03.264Z,2.90
2019-01-02T18:45:32.572Z,2.90
2019-01-02T18:48:01.895Z,2.90
2019-01-02T18:50:31.878Z,2.80
2019-01-02T18:53:01.544Z,2.80
2019-01-02T18:55:30.973Z,2.80
2019-01-02T18:58:00.492Z,2.80
2019-01-02T19:00:29.829Z,2.80
2019-01-02T19:02:59.222Z,2.80
2019-01-02T19:05:28.595Z,2.80
2019-01-02T19:07:57.882Z,2.80
2019-01-02T19:10:27.281Z,2.70
2019-01-02T19:12:56.785Z,2.70
2019-01-02T19:15:26.453Z,2.60
2019-01-02T19:17:55.813Z,2.60
2019-01-02T19:20:25.192Z,2.60
2019-01-02T19:22:54.967Z,2.60
2019-01-02T19:25:24.308Z,2.60
2019-01-02T19:27:53.621Z,2.60
2019-01-02T19:30:22.954Z,2.60
2019-01-02T19:32:52.268Z,2.50
2019-01-02T19:35:21.596Z,2.50
2019-01-02T19:37:50.933Z,2.40
2019-01-02T19:40:20.309Z,2.40
2019-01-02T19:42:49.634Z,2.40
2019-01-02T19:45:18.955Z,2.40
2019-01-02T19:47:48.309Z,2.40
2019-01-02T19:50:17.631Z,2.40
2019-01-02T19:52:46.963Z,2.30
2019-01-02T19:55:16.400Z,2.30
2019-01-02T19:57:46.075Z,2.30
2019-01-02T20:00:15.612Z,2.30
2019-01-02T20:02:45.191Z,2.30
2019-01-02T20:05:14.624Z,2.30
2019-01-02T20:07:44.090Z,2.30
2019-01-02T20:10:13.455Z,2.30
2019-01-02T20:12:42.954Z,2.20
2019-01-02T20:15:13.413Z,2.20
2019-01-02T20:17:42.756Z,2.20
2019-01-02T20:20:13.547Z,2.20
2019-01-02T20:22:42.993Z,2.20
2019-01-02T20:25:12.339Z,2.10
2019-01-02T20:27:41.799Z,2.10
2019-01-02T20:30:12.373Z,2.10
2019-01-02T20:32:41.671Z,2.00
2019-01-02T20:35:11.086Z,2.00
2019-01-02T20:37:40.454Z,2.00
2019-01-02T20:40:10.021Z,2.00
2019-01-02T20:42:39.365Z,2.00
2019-01-02T20:45:09.101Z,1.90
2019-01-02T20:47:38.515Z,1.90
2019-01-02T20:50:09.679Z,1.80
2019-01-02T20:52:39.093Z,1.90
2019-01-02T20:55:08.849Z,1.80
2019-01-02T20:57:38.637Z,1.80
2019-01-02T21:00:10.129Z,1.80
2019-01-02T21:02:39.813Z,1.80
2019-01-02T21:05:09.151Z,1.80
2019-01-02T21:07:38.547Z,1.80
2019-01-02T21:10:09.522Z,1.80
2019-01-02T21:12:39.044Z,1.80
2019-01-02T21:15:09.141Z,1.80
2019-01-02T21:17:38.551Z,1.70
2019-01-02T21:20:09.324Z,1.70
2019-01-02T21:22:38.828Z,1.70
2019-01-02T21:25:08.810Z,1.70
2019-01-02T21:27:38.128Z,1.80
2019-01-02T21:30:08.562Z,1.70
2019-01-02T21:32:37.964Z,1.70
2019-01-02T21:35:07.293Z,1.70
2019-01-02T21:37:36.661Z,1.70
2019-01-02T21:40:06.887Z,1.80
2019-01-02T21:42:36.224Z,1.70
2019-01-02T21:45:05.731Z,1.70
2019-01-02T21:47:35.017Z,1.70
2019-01-02T21:50:05.058Z,1.70
2019-01-02T21:52:34.348Z,1.70
2019-01-02T21:55:03.733Z,1.80
2019-01-02T21:57:33.169Z,1.70
2019-01-02T22:00:02.567Z,1.70
2019-01-02T22:02:31.856Z,1.70
2019-01-02T22:05:01.196Z,1.70
2019-01-02T22:07:30.486Z,1.70
2019-01-02T22:09:59.845Z,1.60
2019-01-02T22:12:29.160Z,1.60
2019-01-02T22:14:58.673Z,1.50
2019-01-02T22:17:27.971Z,1.50
2019-01-02T22:19:57.439Z,1.50
2019-01-02T22:22:26.757Z,1.40
2019-01-02T22:24:56.113Z,1.40
2019-01-02T22:27:25.517Z,1.30
2019-01-02T22:29:54.885Z,1.20
2019-01-02T22:32:24.703Z,1.20
2019-01-02T22:35:13.062Z,1.10
2019-01-02T22:38:01.440Z,1.10
2019-01-02T22:40:50.309Z,1.10
2019-01-02T22:43:39.019Z,1.00
2019-01-02T22:46:27.412Z,1.00
2019-01-02T22:49:15.808Z,0.90
2019-01-02T22:52:04.139Z,0.80
2019-01-02T22:54:52.702Z,0.70
2019-01-02T22:57:41.122Z,0.70
2019-01-02T23:00:48.388Z,0.70
2019-01-02T23:03:55.786Z,0.70
2019-01-02T23:07:03.049Z,0.70
2019-01-02T23:10:10.333Z,0.80
2019-01-02T23:13:17.655Z,0.60
2019-01-02T23:16:24.998Z,0.60
2019-01-02T23:19:32.609Z,0.70
2019-01-02T23:22:39.994Z,0.70
2019-01-02T23:25:47.239Z,0.70
2019-01-02T23:28:54.541Z,0.70
2019-01-02T23:32:01.824Z,0.70
2019-01-02T23:35:01.489Z,0.70
2019-01-02T23:38:01.102Z,0.70
2019-01-02T23:41:01.688Z,0.80
2019-01-02T23:44:02.060Z,0.80
2019-01-02T23:47:05.518Z,0.80
2019-01-02T23:50:05.816Z,0.80
2019-01-02T23:53:05.637Z,0.80
2019-01-02T23:56:10.855Z,0.80
2019-01-02T23:59:18.164Z,0.80
